Pagrindinis puslapis
METAR-TAF:

METAR-TAF

Oro uostai :

Batumis, Gruzija

platuma: 41-36-37N, ilguma: 041-35-58E, Aukštis: 32 m

Dabartinis oras

Ataskaita buvo paskelbta 16 minutes, ne 07:30 UTC
Vėjas 10 kt iš Pietvakarių
Temperatūra 20°C
Drėgmė 73%
Slėgis 1010 hPa
Matomumas 10 km arba daugiau
nėra debesų žemiau 1500 m ir nėra kamuolinių lietaus debesų

METAR: UGSB 140730Z 23010KT CAVOK 20/15 Q1010 NOSIG

Laikas: 11:46 (07:46 UTC)

Prognozė

Ataskaita buvo paskelbta 2 valandos ir 46 minutes, ne 05:00 UTC
Prognozė galioja nuo 14 metu 06 UTC su 15 metu 06 UTC
Vėjas 7 kt iš Pietų/Pietvakarių
Matomumas 10 km arba daugiau
nėra debesų žemiau 1500 m ir nėra kamuolinių lietaus debesų
Laikinai
nuo 14 metu 09 UTC su 14 metu 15 UTC
Vėjas 17 kt iš Vakarų/Pietvakarių
Laikinai
nuo 15 metu 00 UTC su 15 metu 06 UTC
Vėjas 17 kt iš Pietų/Pietvakarių

TAF: UGSB 140500Z 1406/1506 21007KT CAVOK TX28/1409Z TN14/1502Z TEMPO 1409/1415 24017KT TEMPO 1500/1506 21017KT

Orai ataskaitas ir orų prognozės (METAR, TAF).

turimą stotys yra geltonos ir raudonos taškus žemėlapyje.

Perkelti pele per norėdami pamatyti stoties vardą.

Tada spustelėkite, norėdami matyti oro stebėjimo ir prognozės.

Norėdami pakeisti žemėlapį: spustelėkite ant žalios mygtukų su juodo kryžiaus žemyn,; žalią mygtuką su brūkšneliu, jei norite nutolinti; arba žalių rodyklių gretimoms žemėlapius.


METAR-TAF: